Page, North Dakota
Current Conditions -  °F | °C
As of 3:55 AM on Wednesday 26 Nov 2014 (Local Time) from KBAC Reporting Station
Overcast Overcast  
Wind Chill: -10°   Ceiling: 600
Heat Index:   Visibility: 10mi
Dew Point:   Wind: 14mph
Humidity: 85%   Direction: 360°N
Pressure: 30.19"   Gusts: 20mph
Location:  47.16°N, 97.57°W
Report Text: KBAC 260955Z AUTO 36012G17KT 10SM BKN006 OVC100 M14/M16 A3019 RMK AO2
Loading
Personal Weather Stations






























Interactive Weather Map New forecast layout! Learn more

10-Day Weather Forecast

Advertisements
Track Severe Weather on mobile